Bussey, Iowa
Current Conditions -  °F | °C
As of 9:55 PM on Sunday 21 Dec 2014 (Local Time) from KOXV Reporting Station
Overcast Overcast  
Wind Chill: 33°   Ceiling: 900
Heat Index: 41°   Visibility: 10mi
Dew Point: 39°   Wind: 15mph
Humidity: 93%   Direction: 170°S
Pressure: 29.78"   Gusts: NA
Location:  41.2°N, 92.88°W
Report Text: KOXV 220355Z AUTO 17013KT 10SM OVC009 05/04 A2978 RMK AO2
Loading
Personal Weather Stations






























Interactive Weather Map New forecast layout! Learn more

10-Day Weather Forecast

Advertisements
Track Severe Weather on mobile